Time;durP1;ratioP1;P1;durP2;ratioP2;P2;SDS_P1;SDS_P2;PMS_P1;PMS_P2;Temp;Humidity;BMP_temperature;BMP_pressure;BME280_temperature;BME280_humidity;BME280_pressure;Samples;Min_cycle;Max_cycle;Signal;HPM_P1;HPM_P2
2021/07/10 05:57:07;;;;;;;27.33;23.05;;;18.80;99.90;;;;;;3646158;39;20371;-89
2021/07/10 05:59:34;;;;;;;24.75;21.35;;;18.80;99.90;;;;;;3642753;39;20050;-92
2021/07/10 06:02:06;;;;;;;27.90;23.02;;;18.70;99.90;;;;;;3635824;39;20049;-90
2021/07/10 06:04:34;;;;;;;27.90;22.30;;;18.70;99.90;;;;;;3642869;39;20055;-88
2021/07/10 06:07:00;;;;;;;21.00;18.23;;;18.70;99.90;;;;;;3638546;39;20470;-88
2021/07/10 06:09:26;;;;;;;18.35;16.13;;;19.00;99.90;;;;;;3639016;39;20099;-89
2021/07/10 06:11:52;;;;;;;19.77;16.63;;;19.40;99.90;;;;;;3640965;39;20050;-82
2021/07/10 06:14:18;;;;;;;19.95;17.45;;;19.40;99.90;;;;;;3630454;39;20126;-86
2021/07/10 06:16:44;;;;;;;20.58;18.42;;;19.70;99.90;;;;;;3630271;39;20055;-89
2021/07/10 06:19:10;;;;;;;20.92;18.83;;;19.20;99.90;;;;;;3630732;39;20046;-86
2021/07/10 06:21:36;;;;;;;19.83;17.27;;;19.20;99.90;;;;;;3639611;39;20544;-85
2021/07/10 06:24:01;;;;;;;23.27;20.92;;;19.70;99.90;;;;;;3625294;39;20187;-83
2021/07/10 06:26:27;;;;;;;18.20;15.68;;;19.60;99.90;;;;;;3623936;39;20061;-84
2021/07/10 06:28:53;;;;;;;14.45;12.95;;;19.80;99.90;;;;;;3623816;39;20352;-86
2021/07/10 06:31:19;;;;;;;19.23;17.23;;;20.30;99.90;;;;;;3624712;39;20359;-86
2021/07/10 06:33:46;;;;;;;20.48;18.25;;;20.40;99.90;;;;;;3631555;39;20069;-87
2021/07/10 06:36:13;;;;;;;22.95;19.48;;;19.90;99.90;;;;;;3633076;39;20056;-86
2021/07/10 06:38:39;;;;;;;23.25;20.75;;;20.00;99.90;;;;;;3625572;39;20568;-88
2021/07/10 06:41:05;;;;;;;22.25;19.92;;;19.60;99.90;;;;;;3627993;39;20496;-88
2021/07/10 06:43:31;;;;;;;24.27;20.00;;;19.70;99.90;;;;;;3634767;39;20053;-87
2021/07/10 06:45:56;;;;;;;20.83;18.67;;;19.60;99.90;;;;;;3626633;39;20055;-87
2021/07/10 06:48:23;;;;;;;20.48;18.25;;;19.40;99.90;;;;;;3630378;39;20284;-87
2021/07/10 06:50:49;;;;;;;20.63;18.58;;;19.80;99.90;;;;;;3633017;39;20050;-89
2021/07/10 06:53:21;;;;;;;19.70;17.48;;;19.90;99.90;;;;;;3624782;39;20043;-87
2021/07/10 06:55:48;;;;;;;19.58;16.45;;;20.00;99.90;;;;;;3630614;39;20046;-83
2021/07/10 06:58:14;;;;;;;16.50;12.85;;;20.10;99.90;;;;;;3626511;39;20042;-84
2021/07/10 07:00:40;;;;;;;15.20;13.65;;;20.10;99.90;;;;;;3632648;39;20098;-83
2021/07/10 07:03:06;;;;;;;14.98;13.30;;;20.20;99.90;;;;;;3625218;39;20545;-83
2021/07/10 07:05:32;;;;;;;16.85;14.02;;;20.00;99.90;;;;;;3628211;39;20050;-84
2021/07/10 07:07:57;;;;;;;13.45;11.25;;;20.30;99.90;;;;;;3625608;39;20151;-86
2021/07/10 07:10:23;;;;;;;14.82;11.57;;;21.20;99.90;;;;;;3622199;39;20043;-88
2021/07/10 07:12:49;;;;;;;13.40;10.77;;;21.30;99.90;;;;;;3620631;39;20074;-86
2021/07/10 07:15:15;;;;;;;16.02;14.35;;;20.80;99.90;;;;;;3617641;39;20063;-83
2021/07/10 07:17:41;;;;;;;16.33;14.60;;;20.40;99.90;;;;;;3627783;39;20382;-88
2021/07/10 07:20:13;;;;;;;19.63;16.10;;;20.00;99.90;;;;;;3642174;39;20023;-91
2021/07/10 07:22:49;;;;;;;23.55;15.50;;;19.90;99.90;;;;;;3624625;39;20432;-91
2021/07/10 07:25:18;;;;;;;17.55;15.38;;;20.10;99.90;;;;;;3650004;22;20041;-74
2021/07/10 07:27:43;;;;;;;13.55;11.80;;;20.20;99.90;;;;;;3592909;40;20048;-75
2021/07/10 07:30:10;;;;;;;15.93;14.27;;;21.20;99.90;;;;;;3596224;40;20428;-74
2021/07/10 07:32:36;;;;;;;16.85;15.10;;;20.40;99.90;;;;;;3596404;40;20048;-75
2021/07/10 07:35:04;;;;;;;14.73;13.15;;;20.30;99.90;;;;;;3595996;40;20040;-74
2021/07/10 07:37:30;;;;;;;11.82;10.52;;;19.90;99.90;;;;;;3585779;40;20056;-75
2021/07/10 07:39:55;;;;;;;13.52;11.80;;;20.60;99.90;;;;;;3586911;40;20048;-74
2021/07/10 07:42:21;;;;;;;12.80;10.93;;;20.40;99.90;;;;;;3594794;40;20076;-75
2021/07/10 07:44:47;;;;;;;11.88;10.52;;;20.50;99.90;;;;;;3596448;40;20305;-74
2021/07/10 07:47:15;;;;;;;11.82;10.63;;;20.60;99.90;;;;;;3596720;40;20064;-73
2021/07/10 07:49:41;;;;;;;13.82;12.40;;;20.80;99.90;;;;;;3594786;40;20057;-74
2021/07/10 07:52:07;;;;;;;12.05;10.73;;;20.60;99.90;;;;;;3585797;40;20048;-72
2021/07/10 07:54:33;;;;;;;15.68;11.45;;;20.50;99.90;;;;;;3594419;40;20051;-74
2021/07/10 07:57:00;;;;;;;14.38;10.75;;;20.90;99.90;;;;;;3586042;40;20051;-74
2021/07/10 07:59:25;;;;;;;13.35;11.25;;;21.30;99.90;;;;;;3596527;40;20052;-74
2021/07/10 08:01:51;;;;;;;13.80;12.40;;;20.60;99.90;;;;;;3595916;40;20059;-73
2021/07/10 08:04:17;;;;;;;17.63;14.30;;;20.70;99.90;;;;;;3596154;40;20048;-74
2021/07/10 08:06:43;;;;;;;13.80;12.40;;;20.40;99.90;;;;;;3596574;40;20048;-75
2021/07/10 08:09:09;;;;;;;18.00;15.23;;;20.20;99.90;;;;;;3594582;40;20052;-73
2021/07/10 08:11:35;;;;;;;20.13;16.63;;;20.10;99.90;;;;;;3593419;40;20099;-74
2021/07/10 08:14:01;;;;;;;16.08;13.80;;;19.70;99.90;;;;;;3585910;40;20056;-72
2021/07/10 08:16:27;;;;;;;16.70;14.75;;;20.40;99.90;;;;;;3592943;40;20342;-74
2021/07/10 08:18:52;;;;;;;16.25;13.30;;;20.10;99.90;;;;;;3595175;39;20044;-73
2021/07/10 08:21:19;;;;;;;15.80;12.90;;;20.70;99.90;;;;;;3595503;40;20052;-73
2021/07/10 08:23:45;;;;;;;15.05;13.55;;;21.00;99.90;;;;;;3595310;40;20501;-75
2021/07/10 08:26:12;;;;;;;20.38;15.57;;;21.00;99.90;;;;;;3595052;40;20052;-72
2021/07/10 08:28:39;;;;;;;18.67;14.63;;;21.10;99.90;;;;;;3594729;40;20580;-72
2021/07/10 08:31:04;;;;;;;18.27;14.80;;;20.70;99.90;;;;;;3595698;40;20137;-71
2021/07/10 08:33:31;;;;;;;17.65;13.98;;;20.40;99.90;;;;;;3596355;40;20056;-72
2021/07/10 08:35:56;;;;;;;19.90;15.85;;;21.00;99.90;;;;;;3592663;40;20374;-74
2021/07/10 08:38:22;;;;;;;17.98;15.27;;;20.80;99.90;;;;;;3595046;40;20060;-71
2021/07/10 08:40:53;;;;;;;20.85;17.98;;;20.80;99.90;;;;;;3595203;39;20043;-71
2021/07/10 08:43:19;;;;;;;17.85;15.95;;;20.50;99.90;;;;;;3594063;40;20112;-71
2021/07/10 08:45:47;;;;;;;20.85;17.30;;;21.00;99.90;;;;;;3596007;40;20047;-71
2021/07/10 08:48:13;;;;;;;19.17;16.17;;;20.90;99.90;;;;;;3595532;40;20067;-72
2021/07/10 08:50:40;;;;;;;22.58;18.25;;;20.80;99.90;;;;;;3587826;40;20052;-71
2021/07/10 08:53:05;;;;;;;21.23;17.13;;;21.00;99.90;;;;;;3593624;40;20440;-70
2021/07/10 08:55:32;;;;;;;21.67;17.15;;;20.90;99.90;;;;;;3593273;40;20101;-71
2021/07/10 08:57:59;;;;;;;12.90;11.43;;;20.90;99.90;;;;;;3595560;40;20059;-71
2021/07/10 09:00:34;;;;;;;15.25;13.65;;;22.10;99.90;;;;;;3595354;40;20048;-72
2021/07/10 09:03:00;;;;;;;17.60;15.05;;;22.60;99.90;;;;;;3587882;40;20128;-71
2021/07/10 09:05:27;;;;;;;19.48;15.18;;;22.70;99.90;;;;;;3595959;40;20056;-71
2021/07/10 09:08:32;;;;;;;17.17;15.20;;;22.50;99.90;;;;;;3595471;40;20087;-70
2021/07/10 09:11:07;;;;;;;15.82;13.77;;;22.50;99.90;;;;;;3594958;40;20093;-71
2021/07/10 09:13:36;;;;;;;15.25;12.90;;;23.20;99.90;;;;;;3595866;40;20060;-70
2021/07/10 09:16:13;;;;;;;15.50;13.90;;;22.90;99.90;;;;;;3595337;40;20298;-71
2021/07/10 09:18:47;;;;;;;13.93;12.40;;;22.90;99.90;;;;;;3595398;40;20051;-69
2021/07/10 09:21:33;;;;;;;13.55;11.60;;;23.20;99.90;;;;;;3595257;40;20062;-72
2021/07/10 09:23:58;;;;;;;14.77;11.85;;;23.30;99.90;;;;;;3594878;40;20520;-71
2021/07/10 09:26:26;;;;;;;13.30;11.90;;;23.00;99.90;;;;;;3594838;40;20052;-70
2021/07/10 09:28:58;;;;;;;12.85;11.60;;;22.90;99.90;;;;;;3592934;39;20049;-71
2021/07/10 09:31:30;;;;;;;14.52;11.68;;;22.60;99.90;;;;;;3574863;40;20109;-70
2021/07/10 09:34:02;;;;;;;14.00;12.32;;;22.80;99.90;;;;;;3585139;40;20283;-71
2021/07/10 09:36:28;;;;;;;15.82;12.68;;;22.60;99.90;;;;;;3585622;40;20127;-71
2021/07/10 09:38:53;;;;;;;13.00;11.70;;;22.80;99.90;;;;;;3584216;40;20063;-71
2021/07/10 09:41:30;;;;;;;13.88;11.23;;;22.90;99.90;;;;;;3595269;40;20059;-72
2021/07/10 09:44:10;;;;;;;14.48;12.32;;;22.90;99.90;;;;;;3595193;40;20129;-71
2021/07/10 09:46:37;;;;;;;14.48;12.27;;;23.20;99.90;;;;;;3594960;40;20048;-71
2021/07/10 09:49:20;;;;;;;14.45;11.95;;;22.90;99.90;;;;;;3595048;40;20059;-72
2021/07/10 09:51:46;;;;;;;14.63;12.57;;;22.90;99.90;;;;;;3595038;40;20468;-71
2021/07/10 09:54:12;;;;;;;13.65;11.63;;;22.90;99.90;;;;;;3595512;40;20145;-70
2021/07/10 09:56:57;;;;;;;15.98;13.95;;;22.50;99.90;;;;;;3594941;40;20074;-72
2021/07/10 09:59:24;;;;;;;17.35;13.73;;;22.10;99.90;;;;;;3595528;40;20056;-72
2021/07/10 10:01:51;;;;;;;17.48;14.75;;;21.70;99.90;;;;;;3595223;40;20088;-71
2021/07/10 10:04:29;;;;;;;20.90;13.70;;;21.40;99.90;;;;;;3596135;40;20055;-73
2021/07/10 10:06:57;;;;;;;13.90;12.02;;;21.60;99.90;;;;;;3594649;40;20032;-71
2021/07/10 10:09:26;;;;;;;18.63;16.27;;;21.60;99.90;;;;;;3585810;40;20109;-72
2021/07/10 10:12:01;;;;;;;14.48;13.00;;;21.30;99.90;;;;;;3595649;40;20082;-71
2021/07/10 10:14:32;;;;;;;17.88;16.00;;;21.50;99.90;;;;;;3595379;40;20052;-73
2021/07/10 10:16:59;;;;;;;16.33;13.57;;;21.20;99.90;;;;;;3595157;40;20052;-73
2021/07/10 10:19:28;;;;;;;17.27;14.05;;;21.20;99.90;;;;;;3595513;39;20048;-72
2021/07/10 10:21:57;;;;;;;16.20;13.25;;;21.00;99.90;;;;;;3605158;39;20055;-73
2021/07/10 10:24:24;;;;;;;15.05;12.70;;;21.30;99.90;;;;;;3606035;39;20103;-70
2021/07/10 10:26:51;;;;;;;15.02;13.02;;;21.10;99.90;;;;;;3598987;39;20494;-72
2021/07/10 10:29:19;;;;;;;16.13;13.57;;;21.00;99.90;;;;;;3595353;40;20113;-72
2021/07/10 10:31:46;;;;;;;13.35;11.82;;;20.60;99.90;;;;;;3594905;40;20410;-72
2021/07/10 10:34:13;;;;;;;14.20;12.73;;;20.70;99.90;;;;;;3595048;40;20071;-72
2021/07/10 10:36:42;;;;;;;14.13;12.63;;;20.60;99.90;;;;;;3594697;40;20060;-71
2021/07/10 10:39:13;;;;;;;13.80;12.50;;;20.40;99.90;;;;;;3595560;40;20060;-73
2021/07/10 10:41:45;;;;;;;14.93;10.75;;;20.60;99.90;;;;;;3595490;39;20048;-74
2021/07/10 10:44:11;;;;;;;14.65;12.55;;;20.60;99.90;;;;;;3596503;40;20321;-73
2021/07/10 10:46:55;;;;;;;13.20;11.80;;;20.60;99.90;;;;;;3597254;40;20056;-73
2021/07/10 10:49:39;;;;;;;11.63;10.48;;;20.80;99.90;;;;;;3596595;40;20044;-73
2021/07/10 10:52:34;;;;;;;14.82;12.07;;;20.90;99.90;;;;;;3595763;40;20063;-73
2021/07/10 10:55:09;;;;;;;12.60;11.18;;;20.60;99.90;;;;;;3595956;40;20423;-73
2021/07/10 10:58:15;;;;;;;13.73;10.98;;;20.50;99.90;;;;;;3595779;40;20084;-71
2021/07/10 11:00:42;;;;;;;13.85;11.10;;;20.50;99.90;;;;;;3555374;40;20050;-72
2021/07/10 11:03:13;;;;;;;13.10;10.02;;;21.00;99.90;;;;;;3590667;40;20078;-72
2021/07/10 11:05:40;;;;;;;11.48;9.82;;;21.70;99.90;;;;;;3593556;40;20141;-73
2021/07/10 11:08:19;;;;;;;10.73;9.63;;;22.00;99.90;;;;;;3586031;40;20048;-74
2021/07/10 11:10:53;;;;;;;10.63;9.13;;;22.30;99.90;;;;;;3597151;40;20048;-74
2021/07/10 11:13:30;;;;;;;9.65;8.75;;;22.20;99.90;;;;;;3592557;39;20040;-74
2021/07/10 11:16:17;;;;;;;11.43;10.23;;;22.60;99.90;;;;;;3594220;40;20048;-74
2021/07/10 11:18:49;;;;;;;11.60;10.48;;;22.50;99.90;;;;;;3596694;40;20076;-73
2021/07/10 11:21:39;;;;;;;10.05;9.05;;;22.40;99.90;;;;;;3586837;40;20111;-74
2021/07/10 11:24:19;;;;;;;11.55;10.18;;;22.60;99.90;;;;;;3596533;40;20413;-72
2021/07/10 11:26:54;;;;;;;10.98;9.98;;;22.70;99.90;;;;;;3596820;40;20051;-75
2021/07/10 11:29:21;;;;;;;10.43;9.43;;;22.70;99.90;;;;;;3603478;39;20055;-74
2021/07/10 11:31:47;;;;;;;10.32;9.25;;;22.80;99.90;;;;;;3606200;39;20044;-74
2021/07/10 11:34:15;;;;;;;11.38;9.27;;;22.50;99.90;;;;;;3598049;40;20044;-75
2021/07/10 11:36:44;;;;;;;11.15;10.05;;;22.80;99.90;;;;;;3597282;40;20048;-75
2021/07/10 11:39:25;;;;;;;9.98;8.60;;;22.30;99.90;;;;;;3592347;40;20344;-73
2021/07/10 11:41:57;;;;;;;9.20;7.72;;;22.60;99.90;;;;;;3596791;40;20052;-74
2021/07/10 11:44:28;;;;;;;10.07;8.98;;;23.10;99.90;;;;;;3596234;40;20051;-74
2021/07/10 11:47:00;;;;;;;11.23;7.78;;;23.40;99.90;;;;;;3596597;40;20051;-73
2021/07/10 11:49:39;;;;;;;11.85;7.80;;;23.30;99.90;;;;;;3596028;40;20084;-72
2021/07/10 11:52:08;;;;;;;9.35;7.72;;;23.40;99.90;;;;;;3587151;40;20056;-74
2021/07/10 11:54:35;;;;;;;9.88;8.00;;;23.60;99.90;;;;;;3595297;39;20391;-72
2021/07/10 11:57:00;;;;;;;7.72;6.93;;;23.70;99.90;;;;;;3594343;39;20298;-71
2021/07/10 11:59:26;;;;;;;9.85;7.72;;;23.70;99.90;;;;;;3586298;40;20409;-71
2021/07/10 12:01:52;;;;;;;11.57;9.07;;;23.80;99.90;;;;;;3594612;40;20052;-72
2021/07/10 12:04:19;;;;;;;10.30;8.13;;;23.60;99.90;;;;;;3593684;40;20055;-73
2021/07/10 12:06:45;;;;;;;9.00;8.10;;;23.80;99.90;;;;;;3594444;40;20415;-72
2021/07/10 12:09:10;;;;;;;11.95;9.90;;;24.00;99.90;;;;;;3595170;40;20224;-72
2021/07/10 12:11:36;;;;;;;8.80;7.32;;;24.10;99.90;;;;;;3592647;40;20055;-74
2021/07/10 12:14:06;;;;;;;9.40;8.43;;;24.00;99.90;;;;;;3593897;40;20077;-73
2021/07/10 12:16:32;;;;;;;10.02;8.98;;;24.10;99.90;;;;;;3594685;40;20051;-73
2021/07/10 12:18:58;;;;;;;10.10;8.98;;;24.00;99.90;;;;;;3595703;40;20043;-72
2021/07/10 12:21:24;;;;;;;12.10;9.40;;;23.70;99.90;;;;;;3595219;40;20048;-73
2021/07/10 12:23:55;;;;;;;11.80;8.45;;;24.20;99.90;;;;;;3595893;40;20055;-71
2021/07/10 12:26:24;;;;;;;11.13;9.27;;;24.30;99.90;;;;;;3595672;40;20055;-72
2021/07/10 12:28:55;;;;;;;10.85;9.45;;;24.80;99.90;;;;;;3595821;40;20055;-73
2021/07/10 12:31:31;;;;;;;10.40;9.27;;;25.20;99.90;;;;;;3595448;40;20052;-72
2021/07/10 12:34:03;;;;;;;10.85;9.63;;;25.20;99.90;;;;;;3595730;40;20043;-72
2021/07/10 12:36:29;;;;;;;;;;;25.90;99.90;;;;;;3595655;40;20040;-72
2021/07/10 12:38:57;;;;;;;12.20;9.43;;;25.40;99.90;;;;;;3595602;40;20005;-73
2021/07/10 12:41:22;;;;;;;10.23;9.13;;;26.20;99.90;;;;;;3595725;40;20137;-72
2021/07/10 12:43:49;;;;;;;9.32;8.32;;;25.40;99.90;;;;;;3596316;40;20048;-72
2021/07/10 12:46:15;;;;;;;9.07;8.18;;;25.50;99.90;;;;;;3595203;40;20095;-73
2021/07/10 12:48:41;;;;;;;12.23;9.77;;;25.70;99.90;;;;;;3595651;40;20051;-72
2021/07/10 12:51:07;;;;;;;11.68;10.48;;;24.60;99.90;;;;;;3595980;40;20055;-71
2021/07/10 12:53:36;;;;;;;9.35;7.57;;;24.30;99.90;;;;;;3594951;40;20405;-72
2021/07/10 12:56:24;;;;;;;14.27;8.77;;;24.50;99.90;;;;;;3595616;40;20329;-72
2021/07/10 12:58:52;;;;;;;13.02;8.75;;;24.60;99.90;;;;;;3595640;40;20405;-71
2021/07/10 13:01:23;;;;;;;10.20;8.65;;;24.90;99.90;;;;;;3595743;40;20318;-72
2021/07/10 13:03:51;;;;;;;8.63;7.75;;;25.10;99.90;;;;;;3595831;40;20055;-70
2021/07/10 13:06:17;;;;;;;10.95;9.05;;;25.70;99.90;;;;;;3595265;39;20056;-74
2021/07/10 13:08:55;;;;;;;9.93;8.93;;;25.50;99.90;;;;;;3595807;40;20383;-73
2021/07/10 13:11:22;;;;;;;11.50;10.30;;;24.90;99.90;;;;;;3595441;40;20133;-72
2021/07/10 13:13:59;;;;;;;9.63;8.73;;;24.00;99.90;;;;;;3596646;40;20378;-71
2021/07/10 13:16:31;;;;;;;13.27;9.95;;;24.30;99.90;;;;;;3586587;40;20060;-71
2021/07/10 13:18:59;;;;;;;10.18;9.18;;;24.20;99.90;;;;;;3595597;40;20044;-71
2021/07/10 13:21:25;;;;;;;8.90;7.97;;;23.60;99.90;;;;;;3595144;40;20047;-73
2021/07/10 13:23:51;;;;;;;10.00;9.05;;;23.80;99.90;;;;;;3595628;40;20143;-73
2021/07/10 13:26:29;;;;;;;9.75;8.85;;;23.30;99.90;;;;;;3595638;40;20050;-74
2021/07/10 13:29:16;;;;;;;10.18;9.05;;;22.90;99.90;;;;;;3595290;40;20056;-72
2021/07/10 13:31:54;;;;;;;10.95;9.35;;;23.20;99.90;;;;;;3595406;40;20601;-72
2021/07/10 13:34:22;;;;;;;8.85;7.95;;;23.00;99.90;;;;;;3595262;40;20048;-69
2021/07/10 13:36:49;;;;;;;11.82;8.13;;;23.60;99.90;;;;;;3585253;40;20090;-72
2021/07/10 13:39:16;;;;;;;8.10;7.30;;;23.70;99.90;;;;;;3595157;40;20063;-71
2021/07/10 13:41:52;;;;;;;9.27;7.53;;;23.80;99.90;;;;;;3595241;40;20136;-73
2021/07/10 13:44:34;;;;;;;8.68;7.78;;;23.80;99.90;;;;;;3595226;40;20405;-71
2021/07/10 13:47:16;;;;;;;9.82;8.43;;;23.80;99.90;;;;;;3594710;40;20043;-72
2021/07/10 13:49:46;;;;;;;9.10;8.13;;;23.80;99.90;;;;;;3595215;40;20062;-73
2021/07/10 13:52:15;;;;;;;10.13;8.70;;;23.80;99.90;;;;;;3592659;40;20321;-71
2021/07/10 13:54:54;;;;;;;9.50;8.48;;;23.70;99.90;;;;;;3578720;40;20052;-72
2021/07/10 13:57:39;;;;;;;10.00;7.53;;;23.50;99.90;;;;;;3584657;40;20043;-73
2021/07/10 14:00:35;;;;;;;9.77;8.88;;;23.40;99.90;;;;;;3594385;40;20126;-72
2021/07/10 14:03:02;;;;;;;14.90;10.55;;;23.20;99.90;;;;;;3596309;39;20072;-71
2021/07/10 14:05:33;;;;;;;10.10;8.75;;;22.70;99.90;;;;;;3598114;39;20060;-71
2021/07/10 14:08:06;;;;;;;12.73;10.15;;;23.00;99.90;;;;;;3594406;40;20055;-71
2021/07/10 14:10:43;;;;;;;10.70;7.85;;;22.60;99.90;;;;;;3595077;40;20140;-70
2021/07/10 14:13:22;;;;;;;9.52;8.38;;;22.50;99.90;;;;;;3594128;40;20064;-74
2021/07/10 14:15:51;;;;;;;9.45;8.45;;;22.80;99.90;;;;;;3605291;39;20108;-71
2021/07/10 14:18:17;;;;;;;8.25;6.88;;;22.40;99.90;;;;;;3593967;40;20051;-71
2021/07/10 14:20:49;;;;;;;8.63;7.72;;;22.50;99.90;;;;;;3595885;40;20134;-72
2021/07/10 14:23:16;;;;;;;9.60;8.48;;;22.30;99.90;;;;;;3602756;39;20051;-72
2021/07/10 14:25:42;;;;;;;6.47;5.85;;;22.20;99.90;;;;;;3595787;40;20048;-72
2021/07/10 14:28:08;;;;;;;7.75;7.03;;;22.50;99.90;;;;;;3596697;40;20055;-74
2021/07/10 14:30:34;;;;;;;10.88;7.28;;;22.40;99.90;;;;;;3595765;40;20663;-73
2021/07/10 14:33:01;;;;;;;9.68;8.13;;;22.30;99.90;;;;;;3595704;40;20055;-75
2021/07/10 14:35:29;;;;;;;10.82;8.27;;;22.10;99.90;;;;;;3595884;40;20055;-73
2021/07/10 14:37:56;;;;;;;8.98;7.45;;;21.60;99.90;;;;;;3591780;40;20102;-73
2021/07/10 14:40:24;;;;;;;7.55;6.90;;;21.70;99.90;;;;;;3595546;40;20141;-74
2021/07/10 14:42:50;;;;;;;7.40;6.50;;;21.80;99.90;;;;;;3595997;40;20084;-74
2021/07/10 14:45:17;;;;;;;7.32;6.63;;;21.80;99.90;;;;;;3596440;40;20044;-72
2021/07/10 14:47:43;;;;;;;9.05;7.55;;;22.00;99.90;;;;;;3594856;40;20180;-73
2021/07/10 14:50:12;;;;;;;6.47;5.88;;;21.90;99.90;;;;;;3595311;40;20193;-75
2021/07/10 14:52:38;;;;;;;9.15;6.82;;;22.00;99.90;;;;;;3591508;40;20365;-75
2021/07/10 14:55:06;;;;;;;7.03;6.43;;;22.10;99.90;;;;;;3595840;40;20059;-76
2021/07/10 14:57:32;;;;;;;6.47;5.32;;;22.00;99.90;;;;;;3596275;40;20044;-75
2021/07/10 14:59:58;;;;;;;6.85;6.07;;;22.50;99.90;;;;;;3595664;40;20107;-75
2021/07/10 15:02:24;;;;;;;7.63;6.82;;;22.70;99.90;;;;;;3595890;40;20078;-74
2021/07/10 15:04:53;;;;;;;8.35;7.40;;;22.40;99.90;;;;;;3596080;40;20056;-74
2021/07/10 15:07:19;;;;;;;8.75;6.88;;;22.40;99.90;;;;;;3595387;40;20062;-74
2021/07/10 15:09:45;;;;;;;7.03;6.30;;;22.40;99.90;;;;;;3596045;40;20404;-74
2021/07/10 15:12:11;;;;;;;9.52;6.85;;;22.40;99.90;;;;;;3596133;40;20140;-73
2021/07/10 15:14:37;;;;;;;9.23;6.78;;;22.60;99.90;;;;;;3596056;40;20059;-73
2021/07/10 15:17:04;;;;;;;7.15;6.03;;;22.30;99.90;;;;;;3596005;40;20069;-72
2021/07/10 15:19:30;;;;;;;5.80;5.30;;;22.00;99.90;;;;;;3596486;40;20308;-74
2021/07/10 15:21:56;;;;;;;4.97;4.45;;;22.00;99.90;;;;;;3595064;40;20089;-75
2021/07/10 15:24:21;;;;;;;5.30;4.72;;;22.30;99.90;;;;;;3595932;40;20055;-73
2021/07/10 15:26:47;;;;;;;6.10;4.88;;;22.30;99.90;;;;;;3596514;40;20137;-75
2021/07/10 15:29:12;;;;;;;5.78;5.18;;;22.40;99.90;;;;;;3595805;39;20047;-70
2021/07/10 15:31:38;;;;;;;5.50;5.00;;;22.10;99.90;;;;;;3595681;40;20060;-73
2021/07/10 15:34:04;;;;;;;5.32;4.85;;;22.40;99.90;;;;;;3595742;40;20330;-74
2021/07/10 15:36:31;;;;;;;20.40;13.50;;;22.10;99.90;;;;;;3586356;40;20044;-73
2021/07/10 15:38:57;;;;;;;15.90;10.90;;;22.10;99.90;;;;;;3595561;40;20052;-74
2021/07/10 15:41:23;;;;;;;15.30;10.68;;;21.80;99.90;;;;;;3594789;40;20051;-76
2021/07/10 15:43:49;;;;;;;12.60;9.60;;;21.80;99.90;;;;;;3595274;40;20032;-73
2021/07/10 15:46:15;;;;;;;8.20;6.65;;;21.80;99.90;;;;;;3595535;40;20356;-75
2021/07/10 15:48:40;;;;;;;8.02;5.88;;;21.60;99.90;;;;;;3595858;40;20045;-73
2021/07/10 15:51:06;;;;;;;6.80;5.65;;;21.50;99.90;;;;;;3595199;40;20364;-75
2021/07/10 15:53:33;;;;;;;11.02;6.03;;;21.50;99.90;;;;;;3595881;40;20070;-75
2021/07/10 15:55:58;;;;;;;7.65;6.05;;;21.40;99.90;;;;;;3595608;40;20060;-74
2021/07/10 15:58:24;;;;;;;8.32;6.43;;;21.80;99.90;;;;;;3596158;40;20052;-75
2021/07/10 16:00:52;;;;;;;8.68;5.32;;;21.80;99.90;;;;;;3596063;40;20401;-74
2021/07/10 16:03:18;;;;;;;5.47;4.97;;;22.30;99.90;;;;;;3596282;40;20052;-73
2021/07/10 16:05:43;;;;;;;7.97;5.88;;;22.80;99.90;;;;;;3594097;40;20134;-75
2021/07/10 16:08:10;;;;;;;7.30;5.30;;;22.80;99.90;;;;;;3591277;40;20602;-74
2021/07/10 16:10:35;;;;;;;7.35;6.55;;;22.80;99.90;;;;;;3593396;40;20055;-74
2021/07/10 16:13:06;;;;;;;6.00;5.40;;;22.40;99.90;;;;;;3594297;40;20064;-75
2021/07/10 16:15:33;;;;;;;6.90;5.55;;;22.40;99.90;;;;;;3594566;40;20091;-75
2021/07/10 16:17:59;;;;;;;6.32;5.72;;;22.30;99.90;;;;;;3594930;40;20368;-74
2021/07/10 16:20:25;;;;;;;6.90;5.35;;;21.80;99.90;;;;;;3595710;40;20128;-73
2021/07/10 16:22:52;;;;;;;8.75;5.45;;;22.30;99.90;;;;;;3595843;40;20052;-74
2021/07/10 16:25:22;;;;;;;6.50;4.85;;;22.10;99.90;;;;;;3595172;40;20440;-74
2021/07/10 16:27:49;;;;;;;5.90;5.00;;;22.20;99.90;;;;;;3593586;40;20056;-74
2021/07/10 16:30:15;;;;;;;7.32;4.75;;;22.00;99.90;;;;;;3595519;40;20055;-73
2021/07/10 16:32:41;;;;;;;4.80;4.28;;;22.20;99.90;;;;;;3596448;40;20048;-72
2021/07/10 16:35:08;;;;;;;5.32;4.05;;;22.10;99.90;;;;;;3595667;40;20051;-72
2021/07/10 16:37:34;;;;;;;6.45;4.68;;;22.50;99.90;;;;;;3595112;40;20317;-74
2021/07/10 16:40:00;;;;;;;5.13;4.63;;;22.40;99.90;;;;;;3595108;40;20048;-74
2021/07/10 16:42:25;;;;;;;5.80;4.30;;;22.30;99.90;;;;;;3587335;40;20403;-73
2021/07/10 16:44:51;;;;;;;5.03;4.43;;;22.00;99.90;;;;;;3592417;40;20048;-73
2021/07/10 16:47:17;;;;;;;6.63;5.07;;;21.90;99.90;;;;;;3596254;40;20040;-74
2021/07/10 16:49:43;;;;;;;6.53;4.28;;;21.70;99.90;;;;;;3595385;40;20153;-73
2021/07/10 16:52:09;;;;;;;3.83;3.53;;;21.70;99.90;;;;;;3595299;40;20406;-74
2021/07/10 16:54:35;;;;;;;4.78;4.28;;;21.90;99.90;;;;;;3597128;39;20108;-73
2021/07/10 16:57:00;;;;;;;4.30;3.88;;;22.00;99.90;;;;;;3605603;39;20321;-74
2021/07/10 16:59:26;;;;;;;6.95;4.82;;;22.30;99.90;;;;;;3601088;39;20336;-73
2021/07/10 17:01:52;;;;;;;4.80;3.47;;;21.80;99.90;;;;;;3595878;40;20048;-74
2021/07/10 17:04:17;;;;;;;4.93;4.43;;;22.20;99.90;;;;;;3596271;40;20093;-72
2021/07/10 17:06:46;;;;;;;4.75;4.35;;;22.50;99.90;;;;;;3595144;40;20051;-73
2021/07/10 17:09:13;;;;;;;5.18;4.00;;;22.30;99.90;;;;;;3595588;40;20063;-73
2021/07/10 17:11:39;;;;;;;5.30;3.85;;;21.90;99.90;;;;;;3595233;40;20048;-72
2021/07/10 17:14:06;;;;;;;4.93;3.95;;;21.70;99.90;;;;;;3595523;40;20133;-74
2021/07/10 17:16:31;;;;;;;4.25;3.85;;;21.80;99.90;;;;;;3595179;40;20056;-73
2021/07/10 17:18:57;;;;;;;8.30;4.20;;;21.90;99.90;;;;;;3595067;40;20047;-72
2021/07/10 17:21:22;;;;;;;5.63;4.30;;;22.10;99.90;;;;;;3595005;40;20056;-72
2021/07/10 17:23:48;;;;;;;5.47;3.75;;;21.70;99.90;;;;;;3596558;39;20056;-74
2021/07/10 17:26:14;;;;;;;3.92;3.50;;;21.80;99.90;;;;;;3596123;39;20055;-73
2021/07/10 17:28:40;;;;;;;7.15;4.60;;;21.70;99.90;;;;;;3599659;39;20048;-74
2021/07/10 17:31:15;;;;;;;4.40;4.03;;;21.60;99.90;;;;;;3594814;40;20048;-72
2021/07/10 17:33:41;;;;;;;4.60;4.00;;;21.40;99.90;;;;;;3594750;40;20044;-74
2021/07/10 17:36:06;;;;;;;4.85;4.20;;;21.30;99.90;;;;;;3594983;40;20050;-73
2021/07/10 17:38:32;;;;;;;6.50;3.90;;;21.30;99.90;;;;;;3595020;40;20061;-73
2021/07/10 17:40:58;;;;;;;4.40;4.00;;;21.50;99.90;;;;;;3594535;40;20052;-72
2021/07/10 17:43:24;;;;;;;5.97;4.10;;;21.50;99.90;;;;;;3590985;40;20051;-72
2021/07/10 17:45:49;;;;;;;6.60;4.22;;;21.40;99.90;;;;;;3593312;40;20043;-75
2021/07/10 17:48:15;;;;;;;4.53;4.10;;;21.60;99.90;;;;;;3595648;40;20040;-71
2021/07/10 17:50:41;;;;;;;4.93;4.10;;;21.30;99.90;;;;;;3585090;40;20052;-74
2021/07/10 17:53:06;;;;;;;5.65;4.53;;;21.50;99.90;;;;;;3594900;40;20047;-74
2021/07/10 17:55:32;;;;;;;3.97;3.67;;;21.70;99.90;;;;;;3595197;40;20364;-75
2021/07/10 17:57:58;;;;;;;4.20;3.90;;;21.30;99.90;;;;;;3605509;39;20058;-74
2021/07/10 18:00:26;;;;;;;5.38;4.72;;;21.30;99.90;;;;;;3603715;39;20105;-74
2021/07/10 18:02:52;;;;;;;6.88;4.18;;;20.80;99.90;;;;;;3594907;40;20058;-73
2021/07/10 18:05:17;;;;;;;7.90;4.25;;;20.90;99.90;;;;;;3595747;40;20406;-76
2021/07/10 18:07:43;;;;;;;4.18;3.78;;;20.90;99.90;;;;;;3594654;40;20044;-75
2021/07/10 18:10:10;;;;;;;4.45;4.05;;;20.60;99.90;;;;;;3595520;40;20383;-75
2021/07/10 18:12:36;;;;;;;4.82;4.30;;;20.60;99.90;;;;;;3595960;40;20052;-75
2021/07/10 18:15:04;;;;;;;5.28;4.50;;;20.50;99.90;;;;;;3595637;40;20380;-74
2021/07/10 18:17:30;;;;;;;6.70;4.50;;;20.70;99.90;;;;;;3595362;40;20083;-73
2021/07/10 18:19:56;;;;;;;4.78;4.30;;;20.40;99.90;;;;;;3595455;40;20499;-74
2021/07/10 18:22:21;;;;;;;5.47;4.68;;;20.30;99.90;;;;;;3594761;40;20372;-72
2021/07/10 18:24:47;;;;;;;5.30;4.47;;;20.30;99.90;;;;;;3596251;40;20394;-75
2021/07/10 18:27:13;;;;;;;6.50;4.43;;;20.60;99.90;;;;;;3595392;40;20096;-74
2021/07/10 18:29:38;;;;;;;6.03;4.70;;;20.80;99.90;;;;;;3595524;40;20287;-74
2021/07/10 18:32:04;;;;;;;6.03;4.75;;;20.70;99.90;;;;;;3595606;40;20405;-73
2021/07/10 18:34:30;;;;;;;5.35;4.53;;;20.50;99.90;;;;;;3595182;40;20042;-74
2021/07/10 18:36:55;;;;;;;5.20;4.70;;;20.60;99.90;;;;;;3594857;40;20378;-74
2021/07/10 18:39:21;;;;;;;5.45;3.85;;;20.30;99.90;;;;;;3591403;40;20044;-73
2021/07/10 18:41:48;;;;;;;5.35;3.42;;;20.30;99.90;;;;;;3595888;40;20125;-73